Time;durP1;ratioP1;P1;durP2;ratioP2;P2;SDS_P1;SDS_P2;PMS_P1;PMS_P2;Temp;Humidity;BMP_temperature;BMP_pressure;BME280_temperature;BME280_humidity;BME280_pressure;Samples;Min_cycle;Max_cycle;Signal;HPM_P1;HPM_P2
2023/01/17 00:00:49;;;;;;;4.38;2.10;;;1.60;99.90;;;;;;6217117;23;20047;-85
2023/01/17 00:09:51;;;;;;;2.00;1.80;;;1.70;99.90;;;;;;6261404;23;20028;-84
2023/01/17 00:09:55;;;;;;;1.73;1.48;;;1.80;1.00;;;;;;6209178;22;20039;-83
2023/01/17 00:13:02;;;;;;;1.40;1.30;;;1.70;1.00;;;;;;6216251;23;20020;-86
2023/01/17 00:15:51;;;;;;;1.50;1.40;;;1.40;99.90;;;;;;6229507;23;20032;-84
2023/01/17 01:35:23;;;;;;;3.47;1.70;;;0.70;1.00;;;;;;6245969;23;20424;-84
2023/01/17 01:38:13;;;;;;;2.15;1.60;;;0.70;99.90;;;;;;6246978;23;20020;-83
2023/01/17 01:41:19;;;;;;;1.70;1.60;;;0.70;99.90;;;;;;6246224;23;20091;-83
2023/01/17 01:44:42;;;;;;;1.98;1.63;;;0.70;99.90;;;;;;6246245;23;20032;-83
2023/01/17 01:47:39;;;;;;;3.78;1.73;;;0.70;99.90;;;;;;6246773;23;20028;-83
2023/01/17 01:50:27;;;;;;;1.58;1.48;;;0.70;99.90;;;;;;6246010;23;20451;-84
2023/01/17 01:53:23;;;;;;;1.88;1.40;;;0.70;99.90;;;;;;6226719;23;20024;-84
2023/01/17 01:56:13;;;;;;;2.13;1.48;;;0.70;99.90;;;;;;6249855;23;20031;-83
2023/01/17 01:59:03;;;;;;;5.35;1.88;;;0.70;99.90;;;;;;6250276;23;20071;-83
2023/01/17 02:01:54;;;;;;;1.80;1.70;;;0.70;99.90;;;;;;6250952;23;20024;-82
2023/01/17 02:04:43;;;;;;;2.83;2.10;;;0.70;99.90;;;;;;6237970;23;20023;-83
2023/01/17 02:07:36;;;;;;;2.50;1.80;;;0.70;1.00;;;;;;6256020;23;20058;-82
2023/01/17 02:10:28;;;;;;;3.80;1.85;;;0.70;1.00;;;;;;6235122;23;20034;-84
2023/01/17 02:13:18;;;;;;;3.83;1.70;;;0.70;1.00;;;;;;6252760;23;20024;-83
2023/01/17 02:16:43;;;;;;;3.05;2.00;;;0.70;40.10;;;;;;6248960;23;20036;-84
2023/01/17 02:20:10;;;;;;;3.53;1.90;;;0.70;99.90;;;;;;6247318;23;20028;-84
2023/01/17 02:23:35;;;;;;;2.95;1.77;;;0.70;99.90;;;;;;6246785;23;20481;-85
2023/01/17 02:26:51;;;;;;;1.80;1.70;;;0.70;99.90;;;;;;6247464;23;20024;-84
2023/01/17 02:30:15;;;;;;;2.80;1.88;;;0.70;1.00;;;;;;6247016;23;20113;-84
2023/01/17 02:33:12;;;;;;;3.65;1.90;;;0.70;99.90;;;;;;6245346;23;20047;-84
2023/01/17 02:36:30;;;;;;;2.08;1.73;;;0.70;99.90;;;;;;6248325;23;20028;-84
2023/01/17 02:39:38;;;;;;;4.22;2.10;;;0.70;99.90;;;;;;6244558;23;20763;-83
2023/01/17 02:42:37;;;;;;;2.72;1.80;;;0.70;39.60;;;;;;6247036;23;20028;-84
2023/01/17 02:45:29;;;;;;;3.33;2.00;;;0.70;99.90;;;;;;6246549;23;20059;-84
2023/01/17 02:48:22;;;;;;;2.45;2.28;;;0.60;99.90;;;;;;6247683;23;20020;-84
2023/01/17 02:52:20;;;;;;;2.47;2.28;;;0.60;76.40;;;;;;6247023;23;20032;-83
2023/01/17 02:55:25;;;;;;;3.80;2.40;;;0.70;1.00;;;;;;6118190;23;20081;-82
2023/01/17 02:58:50;;;;;;;6.90;2.85;;;0.70;13.30;;;;;;6163656;23;20036;-84
2023/01/17 03:02:20;;;;;;;4.82;2.92;;;0.70;99.90;;;;;;6154799;23;20029;-83
2023/01/17 03:05:23;;;;;;;2.95;2.65;;;0.70;99.90;;;;;;6155732;23;20072;-83
2023/01/17 03:08:11;;;;;;;3.47;2.80;;;0.60;99.90;;;;;;6156253;23;20097;-84
2023/01/17 03:11:01;;;;;;;8.32;2.83;;;0.50;1.00;;;;;;6247654;22;20423;-83
2023/01/17 03:13:54;;;;;;;3.72;3.13;;;0.40;99.90;;;;;;6246104;23;20040;-84
2023/01/17 03:16:42;;;;;;;3.17;2.88;;;0.40;99.90;;;;;;6247234;23;20030;-83
2023/01/17 03:19:30;;;;;;;5.53;3.00;;;0.40;99.90;;;;;;6245632;23;20024;-83
2023/01/17 03:22:20;;;;;;;8.25;2.78;;;0.40;99.90;;;;;;6225581;23;20035;-83
2023/01/17 03:25:07;;;;;;;3.40;2.80;;;0.50;99.90;;;;;;6244419;23;20052;-82
2023/01/17 03:27:54;;;;;;;6.18;2.83;;;0.60;1.00;;;;;;6246228;23;20501;-83
2023/01/17 03:30:47;;;;;;;3.97;2.67;;;0.70;99.90;;;;;;6227645;23;20038;-84
2023/01/17 03:33:38;;;;;;;3.63;2.40;;;0.70;99.90;;;;;;6230254;23;20359;-84
2023/01/17 03:36:25;;;;;;;7.72;2.55;;;0.70;99.90;;;;;;6224977;23;20048;-83
2023/01/17 03:39:12;;;;;;;3.15;2.50;;;0.70;99.90;;;;;;6247222;23;20273;-83
2023/01/17 03:42:05;;;;;;;4.57;2.30;;;0.80;99.90;;;;;;6248917;23;20031;-83
2023/01/17 03:44:52;;;;;;;;;;;0.70;99.90;;;;;;6231354;23;20537;-84
2023/01/17 03:47:39;;;;;;;8.02;2.50;;;0.60;99.90;;;;;;6231689;23;19926;-82
2023/01/17 03:50:28;;;;;;;5.78;2.65;;;0.50;1.00;;;;;;6251884;23;20335;-82
2023/01/17 03:53:19;;;;;;;5.78;2.50;;;0.50;1.00;;;;;;6229088;23;20071;-84
2023/01/17 03:56:08;;;;;;;2.80;2.30;;;0.50;1.00;;;;;;6254886;23;20673;-83
2023/01/17 03:58:57;;;;;;;3.65;2.03;;;0.40;99.90;;;;;;6257341;23;20035;-86
2023/01/17 04:01:44;;;;;;;2.60;2.10;;;0.30;99.90;;;;;;6251102;23;20020;-83
2023/01/17 04:04:32;;;;;;;2.65;2.45;;;0.40;99.90;;;;;;6246386;23;20404;-82
2023/01/17 04:07:20;;;;;;;5.65;2.63;;;0.30;1.00;;;;;;6227949;23;20078;-83
2023/01/17 04:10:07;;;;;;;5.60;2.65;;;0.30;1.00;;;;;;6249180;23;20335;-83
2023/01/17 04:12:57;;;;;;;4.13;2.40;;;0.20;1.00;;;;;;6247435;23;20078;-84
2023/01/17 04:15:47;;;;;;;5.10;2.50;;;0.10;99.90;;;;;;6246528;23;20031;-83
2023/01/17 04:18:34;;;;;;;2.17;1.98;;;0.00;99.90;;;;;;6245705;23;20021;-84
2023/01/17 04:21:22;;;;;;;3.60;2.70;;;-0.10;99.90;;;;;;6245045;23;20020;-83
2023/01/17 04:24:10;;;;;;;3.40;2.38;;;-0.10;1.00;;;;;;6244866;23;20039;-84
2023/01/17 04:26:57;;;;;;;2.58;2.38;;;-0.10;38.80;;;;;;6222597;23;20038;-84
2023/01/17 04:29:52;;;;;;;2.72;2.47;;;-0.20;99.90;;;;;;6223642;23;20048;-84
2023/01/17 04:32:39;;;;;;;3.60;3.10;;;-0.20;99.90;;;;;;6246061;23;20084;-84
2023/01/17 04:35:30;;;;;;;4.43;2.50;;;-0.20;1.00;;;;;;6244822;23;20082;-83
2023/01/17 04:38:18;;;;;;;3.28;2.72;;;-0.10;1.00;;;;;;6246361;23;20024;-83
2023/01/17 04:41:05;;;;;;;4.75;2.55;;;-0.10;99.90;;;;;;6244128;23;20078;-85
2023/01/17 04:43:53;;;;;;;5.07;2.67;;;-0.10;1.00;;;;;;6245659;23;20095;-85
2023/01/17 04:46:42;;;;;;;3.47;2.70;;;0.00;1.00;;;;;;6223957;23;20427;-83
2023/01/17 04:49:32;;;;;;;4.82;2.97;;;-0.10;99.90;;;;;;6243894;23;20600;-84
2023/01/17 04:52:19;;;;;;;4.63;2.63;;;-0.10;99.90;;;;;;6223582;23;20028;-82
2023/01/17 04:55:07;;;;;;;7.82;2.40;;;-0.10;99.90;;;;;;6245000;23;20085;-84
2023/01/17 04:57:54;;;;;;;3.15;2.40;;;-0.10;1.00;;;;;;6245327;23;20028;-84
2023/01/17 05:00:41;;;;;;;3.17;2.58;;;0.00;1.00;;;;;;6245828;23;20096;-84
2023/01/17 05:03:49;;;;;;;3.60;2.45;;;-0.10;1.00;;;;;;6246253;23;20024;-84
2023/01/17 05:06:36;;;;;;;3.05;2.33;;;-0.10;1.00;;;;;;6225172;23;20098;-84
2023/01/17 05:09:24;;;;;;;2.60;2.40;;;0.00;1.00;;;;;;6247493;23;20031;-85
2023/01/17 05:12:11;;;;;;;6.85;2.72;;;0.00;99.90;;;;;;6247433;23;20027;-83
2023/01/17 05:14:58;;;;;;;4.93;2.85;;;0.10;99.90;;;;;;6244472;23;20020;-84
2023/01/17 05:17:45;;;;;;;3.50;2.40;;;0.20;1.00;;;;;;6245807;23;20081;-84
2023/01/17 05:20:32;;;;;;;4.63;2.63;;;0.20;99.90;;;;;;6247372;23;20035;-84
2023/01/17 05:23:19;;;;;;;4.60;2.97;;;0.20;1.00;;;;;;6246863;23;20118;-82
2023/01/17 05:26:06;;;;;;;4.55;2.70;;;0.20;1.00;;;;;;6244495;23;20392;-84
2023/01/17 05:28:53;;;;;;;3.47;2.53;;;0.10;1.00;;;;;;6247981;23;20439;-85
2023/01/17 05:31:41;;;;;;;3.08;2.58;;;0.10;1.00;;;;;;6248824;23;20135;-83
2023/01/17 05:34:28;;;;;;;6.32;3.20;;;0.00;99.90;;;;;;6246935;23;20293;-84
2023/01/17 05:37:16;;;;;;;7.70;2.90;;;0.00;99.90;;;;;;6246449;23;20106;-83
2023/01/17 05:40:05;;;;;;;5.10;3.00;;;-0.10;15.00;;;;;;6247682;23;20031;-84
2023/01/17 05:42:56;;;;;;;3.75;3.30;;;-0.10;99.90;;;;;;6246419;23;20043;-84
2023/01/17 05:45:47;;;;;;;3.67;2.47;;;-0.10;99.90;;;;;;6248281;23;20107;-83
2023/01/17 05:48:34;;;;;;;9.85;3.30;;;-0.10;99.90;;;;;;6224454;23;20024;-83
2023/01/17 05:51:21;;;;;;;5.03;3.08;;;-0.10;1.00;;;;;;6225077;23;20039;-83
2023/01/17 05:54:08;;;;;;;3.55;2.90;;;-0.20;99.90;;;;;;6246391;23;20020;-83
2023/01/17 05:56:57;;;;;;;6.82;5.47;;;-0.20;99.90;;;;;;6247977;23;20027;-84
2023/01/17 05:59:47;;;;;;;5.65;4.13;;;-0.20;99.90;;;;;;6247295;23;20391;-83
2023/01/17 06:02:34;;;;;;;6.05;4.28;;;-0.20;99.90;;;;;;6225974;23;20031;-83
2023/01/17 06:05:25;;;;;;;7.13;4.65;;;-0.30;99.90;;;;;;6246331;23;20436;-83
2023/01/17 06:08:15;;;;;;;7.68;4.50;;;-0.20;1.00;;;;;;6247444;23;20332;-83
2023/01/17 06:11:02;;;;;;;6.60;5.45;;;-0.20;1.00;;;;;;6247299;23;20095;-84
2023/01/17 06:13:49;;;;;;;5.43;3.63;;;-0.30;1.00;;;;;;6247440;23;20098;-84
2023/01/17 06:16:36;;;;;;;10.52;3.58;;;-0.30;22.70;;;;;;6247771;23;20129;-83
2023/01/17 06:19:23;;;;;;;6.55;3.53;;;-0.30;50.00;;;;;;6225361;23;20025;-84
2023/01/17 06:22:11;;;;;;;5.78;3.70;;;-0.40;67.10;;;;;;6245145;23;20028;-84
2023/01/17 06:24:58;;;;;;;10.60;4.75;;;-0.50;88.00;;;;;;6225555;23;20047;-85
2023/01/17 06:27:49;;;;;;;12.50;5.88;;;-0.60;99.80;;;;;;6246716;23;20115;-84
2023/01/17 06:30:39;;;;;;;14.20;6.32;;;-0.60;99.90;;;;;;6246725;23;20031;-85
2023/01/17 06:33:26;;;;;;;10.82;4.35;;;-0.70;99.90;;;;;;6225268;23;20052;-81
2023/01/17 06:36:13;;;;;;;12.18;6.15;;;-0.80;99.90;;;;;;6248133;23;20024;-84
2023/01/17 06:39:02;;;;;;;134.23;60.67;;;-0.80;99.90;;;;;;6245805;23;20074;-81
2023/01/17 06:41:50;;;;;;;105.43;52.50;;;-0.90;99.90;;;;;;6244842;23;20442;-83
2023/01/17 06:44:37;;;;;;;28.83;15.45;;;-0.90;99.90;;;;;;6226013;23;20153;-83
2023/01/17 06:47:24;;;;;;;25.40;13.52;;;-1.00;99.90;;;;;;6246800;23;20083;-83
2023/01/17 06:50:13;;;;;;;38.03;19.85;;;-1.00;99.90;;;;;;6246836;23;20028;-80
2023/01/17 06:53:04;;;;;;;81.20;42.17;;;-1.00;99.90;;;;;;6244454;23;20107;-81
2023/01/17 06:55:54;;;;;;;84.28;41.63;;;-1.00;99.90;;;;;;6246367;22;20028;-81
2023/01/17 06:58:47;;;;;;;61.45;31.83;;;-1.00;99.90;;;;;;6246163;23;20031;-82
2023/01/17 07:01:34;;;;;;;27.48;14.70;;;-0.90;99.90;;;;;;6247792;22;20030;-85
2023/01/17 07:04:26;;;;;;;32.78;17.70;;;-0.90;99.90;;;;;;6227149;22;20107;-84
2023/01/17 07:07:13;;;;;;;6.25;4.03;;;-0.90;99.90;;;;;;6223532;23;20039;-85
2023/01/17 07:10:03;;;;;;;7.20;5.18;;;-0.90;99.90;;;;;;6225657;23;20043;-85
2023/01/17 07:12:58;;;;;;;9.13;6.55;;;-0.90;99.90;;;;;;6245485;23;20498;-84
2023/01/17 07:15:47;;;;;;;11.75;7.10;;;-0.90;99.90;;;;;;6224518;23;20034;-85
2023/01/17 07:18:34;;;;;;;13.18;7.22;;;-0.90;99.90;;;;;;6222883;23;20016;-85
2023/01/17 07:21:22;;;;;;;11.18;7.50;;;-0.90;99.90;;;;;;6245734;23;20035;-84
2023/01/17 07:24:09;;;;;;;14.02;8.30;;;-0.80;99.90;;;;;;6245140;23;20032;-84
2023/01/17 07:26:56;;;;;;;19.83;8.40;;;-0.80;99.90;;;;;;6224972;23;20375;-85
2023/01/17 07:30:08;;;;;;;11.77;7.78;;;-0.90;99.90;;;;;;6245880;23;20025;-85
2023/01/17 07:33:30;;;;;;;12.48;6.22;;;-0.90;99.90;;;;;;6245354;23;20380;-83
2023/01/17 07:36:17;;;;;;;19.40;8.77;;;-1.00;99.90;;;;;;6244816;23;20175;-83
2023/01/17 07:39:08;;;;;;;15.85;9.45;;;-0.90;99.90;;;;;;6243701;23;20055;-85
2023/01/17 07:41:55;;;;;;;16.35;9.07;;;-0.90;99.90;;;;;;6245678;23;20099;-85
2023/01/17 07:44:45;;;;;;;18.02;8.52;;;-0.90;99.90;;;;;;6244695;23;20028;-84
2023/01/17 07:47:32;;;;;;;18.67;8.02;;;-0.80;99.90;;;;;;6247480;23;20382;-85
2023/01/17 07:50:20;;;;;;;13.32;7.32;;;-0.80;99.90;;;;;;6223888;23;20050;-86
2023/01/17 07:53:07;;;;;;;14.27;7.10;;;-0.80;99.90;;;;;;6225978;23;20039;-84
2023/01/17 07:55:58;;;;;;;11.18;7.20;;;-0.80;99.90;;;;;;6246393;23;20097;-85
2023/01/17 07:58:47;;;;;;;12.05;6.43;;;-0.80;99.90;;;;;;6245774;23;20092;-86
2023/01/17 08:01:34;;;;;;;13.20;6.65;;;-0.70;99.90;;;;;;6246318;23;20024;-85
2023/01/17 08:04:25;;;;;;;10.60;7.00;;;-0.60;99.90;;;;;;6225375;23;20028;-84
2023/01/17 08:07:17;;;;;;;9.60;6.78;;;-0.60;99.90;;;;;;6223117;23;20469;-85
2023/01/17 08:10:11;;;;;;;10.52;6.72;;;-0.50;99.90;;;;;;6245481;23;20082;-85
2023/01/17 08:12:59;;;;;;;10.02;6.80;;;-0.40;99.90;;;;;;6246362;23;20099;-84
2023/01/17 08:15:48;;;;;;;12.65;7.03;;;-0.40;99.90;;;;;;6224896;23;20039;-85
2023/01/17 08:18:35;;;;;;;15.88;8.48;;;-0.40;99.90;;;;;;6223824;23;20078;-85
2023/01/17 08:21:25;;;;;;;23.65;11.20;;;-0.40;99.90;;;;;;6245732;23;20431;-87
2023/01/17 08:24:13;;;;;;;41.35;21.58;;;-0.30;99.90;;;;;;6248637;22;20328;-86
2023/01/17 08:27:00;;;;;;;18.52;13.02;;;-0.20;99.90;;;;;;6223968;23;20035;-87
2023/01/17 08:29:48;;;;;;;17.00;9.82;;;-0.10;99.90;;;;;;6223551;23;20093;-86
2023/01/17 08:32:39;;;;;;;35.35;16.23;;;0.00;99.90;;;;;;6227358;23;20047;-87
2023/01/17 08:35:27;;;;;;;22.85;11.98;;;0.20;99.90;;;;;;6244943;23;20102;-84
2023/01/17 08:38:14;;;;;;;25.63;12.68;;;0.40;99.90;;;;;;6249515;22;20035;-88
2023/01/17 08:41:04;;;;;;;14.43;7.63;;;0.70;99.90;;;;;;6249463;22;20032;-87
2023/01/17 08:43:53;;;;;;;12.05;6.07;;;0.80;99.90;;;;;;6256399;23;20052;-84
2023/01/17 08:46:42;;;;;;;14.07;6.57;;;0.80;99.90;;;;;;6257126;23;20024;-84
2023/01/17 08:49:30;;;;;;;14.27;6.53;;;0.90;99.90;;;;;;6239170;23;20400;-87
2023/01/17 08:52:18;;;;;;;10.90;4.60;;;0.90;99.90;;;;;;6270771;22;20039;-85
2023/01/17 08:55:08;;;;;;;21.15;7.75;;;1.00;99.90;;;;;;6250073;22;20051;-87
2023/01/17 08:58:03;;;;;;;11.55;6.65;;;1.00;99.90;;;;;;6244997;23;20020;-86
2023/01/17 09:00:52;;;;;;;9.77;4.88;;;0.90;1.00;;;;;;6244367;23;20311;-87
2023/01/17 09:03:39;;;;;;;10.65;5.05;;;0.90;1.00;;;;;;6258018;23;20084;-87
2023/01/17 09:06:27;;;;;;;10.20;5.68;;;0.90;99.90;;;;;;6256112;23;20032;-86
2023/01/17 09:09:18;;;;;;;8.88;4.78;;;0.80;99.90;;;;;;6254133;23;20059;-87
2023/01/17 09:12:08;;;;;;;8.32;4.82;;;0.80;99.90;;;;;;6250835;23;20021;-88
2023/01/17 09:14:55;;;;;;;6.40;4.53;;;0.80;1.00;;;;;;6231656;23;20024;-86
2023/01/17 09:17:42;;;;;;;8.88;4.50;;;0.90;99.90;;;;;;6229624;23;20038;-86
2023/01/17 09:20:30;;;;;;;7.25;4.95;;;1.10;19.20;;;;;;6251488;23;20020;-86
2023/01/17 09:23:18;;;;;;;8.43;5.05;;;1.40;99.90;;;;;;6250317;23;20074;-87
2023/01/17 09:26:05;;;;;;;6.22;4.47;;;1.60;1.00;;;;;;6247735;23;20028;-87
2023/01/17 09:28:53;;;;;;;4.97;3.60;;;2.00;99.90;;;;;;6229787;23;20091;-86
2023/01/17 09:31:41;;;;;;;8.38;4.57;;;2.20;99.90;;;;;;6250080;23;20404;-88
2023/01/17 09:34:31;;;;;;;10.85;5.18;;;2.40;1.00;;;;;;6249892;23;20095;-87
2023/01/17 09:37:21;;;;;;;10.20;4.80;;;2.70;99.90;;;;;;6226527;23;20028;-86
2023/01/17 09:40:18;;;;;;;7.95;3.92;;;3.20;1.00;;;;;;6250534;23;20024;-86
2023/01/17 09:43:32;;;;;;;9.88;4.53;;;3.50;99.90;;;;;;6252377;23;20024;-87
2023/01/17 09:46:25;;;;;;;6.00;3.72;;;3.40;1.00;;;;;;6248975;23;20056;-87
2023/01/17 09:49:21;;;;;;;4.97;3.38;;;4.10;99.90;;;;;;6249943;23;20028;-84
2023/01/17 09:52:16;;;;;;;4.38;2.30;;;5.20;99.90;;;;;;6248673;23;20047;-85
2023/01/17 09:55:04;;;;;;;5.72;1.85;;;5.90;1.00;;;;;;6225678;23;20020;-86
2023/01/17 09:58:09;;;;;;;4.35;1.90;;;6.60;99.90;;;;;;6249391;23;20024;-87
2023/01/17 10:04:21;;;;;;;2.78;1.60;;;7.30;1.00;;;;;;6248898;23;20020;-88
2023/01/17 10:07:42;;;;;;;3.15;1.77;;;8.40;1.00;;;;;;6250000;23;20082;-86
2023/01/17 10:10:38;;;;;;;2.33;1.60;;;8.80;99.90;;;;;;6241954;23;20358;-87
2023/01/17 10:13:34;;;;;;;20.15;7.53;;;9.20;99.90;;;;;;6248305;23;20313;-87
2023/01/17 10:16:37;;;;;;;11.52;4.43;;;9.80;99.90;;;;;;6247702;23;20024;-87
2023/01/17 10:20:02;;;;;;;3.53;1.60;;;10.00;99.90;;;;;;6249949;23;20024;-87
2023/01/17 10:23:02;;;;;;;2.10;1.25;;;10.20;99.90;;;;;;6247904;23;20027;-87
2023/01/17 10:26:03;;;;;;;1.98;1.15;;;10.30;99.90;;;;;;6227549;23;20028;-88
2023/01/17 10:28:53;;;;;;;3.20;1.00;;;10.30;99.90;;;;;;6227460;23;20024;-88
2023/01/17 10:31:50;;;;;;;2.72;1.40;;;10.30;99.90;;;;;;6228226;23;20029;-87
2023/01/17 10:34:47;;;;;;;1.17;1.08;;;10.20;99.90;;;;;;6210440;23;20028;-86
2023/01/17 10:37:42;;;;;;;1.40;0.77;;;10.40;99.90;;;;;;6248688;23;20316;-89
2023/01/17 10:41:05;;;;;;;2.67;0.90;;;11.40;99.90;;;;;;6228458;23;20073;-88
2023/01/17 10:43:58;;;;;;;3.80;0.75;;;10.60;99.90;;;;;;6243777;23;20103;-88
2023/01/17 10:46:58;;;;;;;3.92;0.93;;;10.00;99.90;;;;;;6226737;23;20029;-87
2023/01/17 10:49:51;;;;;;;1.10;0.75;;;9.80;99.90;;;;;;6250434;23;20024;-87
2023/01/17 10:53:08;;;;;;;2.63;0.95;;;9.90;99.90;;;;;;6226344;23;20311;-85
2023/01/17 10:55:57;;;;;;;2.00;0.90;;;10.60;99.90;;;;;;6227506;23;20020;-86
2023/01/17 10:58:48;;;;;;;1.63;1.13;;;10.80;99.90;;;;;;6249215;23;20024;-84
2023/01/17 11:01:35;;;;;;;1.63;1.02;;;10.20;99.90;;;;;;6224029;23;20031;-86
2023/01/17 11:04:41;;;;;;;1.48;1.10;;;9.90;99.90;;;;;;6249079;23;20021;-86
2023/01/17 11:07:29;;;;;;;2.80;1.02;;;10.50;99.90;;;;;;6247795;23;20038;-87
2023/01/17 11:10:41;;;;;;;2.67;1.30;;;10.30;99.90;;;;;;6248164;23;20101;-86
2023/01/17 11:13:35;;;;;;;2.88;1.20;;;11.00;99.90;;;;;;6247187;23;20131;-87
2023/01/17 11:16:24;;;;;;;1.23;1.10;;;10.60;99.90;;;;;;6224904;23;20036;-87
2023/01/17 11:19:27;;;;;;;1.73;1.10;;;10.90;99.90;;;;;;6247238;23;20027;-86
2023/01/17 11:22:17;;;;;;;2.08;1.25;;;10.60;99.90;;;;;;6248630;23;20031;-86
2023/01/17 11:25:06;;;;;;;1.80;1.30;;;10.00;99.90;;;;;;6226116;23;20036;-87
2023/01/17 11:28:00;;;;;;;1.20;1.10;;;10.10;99.90;;;;;;6246853;23;20032;-86
2023/01/17 11:31:07;;;;;;;1.73;1.27;;;10.30;99.90;;;;;;6245341;23;20335;-88
2023/01/17 11:34:14;;;;;;;3.20;1.40;;;9.80;99.90;;;;;;6224410;23;20419;-87
2023/01/17 11:37:18;;;;;;;4.22;1.50;;;9.40;99.90;;;;;;6246071;23;20028;-85
2023/01/17 11:40:24;;;;;;;2.95;1.52;;;9.30;99.90;;;;;;6247370;23;20031;-87
2023/01/17 11:43:11;;;;;;;2.65;1.30;;;9.90;99.90;;;;;;6246447;23;20061;-89
2023/01/17 11:46:03;;;;;;;3.15;1.25;;;10.60;99.90;;;;;;6248012;23;20032;-88
2023/01/17 11:48:58;;;;;;;2.03;1.40;;;11.20;99.90;;;;;;6246717;23;20332;-87
2023/01/17 11:51:47;;;;;;;2.05;1.20;;;10.80;99.90;;;;;;6246409;23;20075;-87
2023/01/17 11:54:41;;;;;;;1.52;0.90;;;10.80;99.90;;;;;;6246605;23;20103;-86
2023/01/17 11:57:32;;;;;;;2.47;1.00;;;10.60;99.90;;;;;;6247445;23;20024;-86
2023/01/17 12:00:29;;;;;;;1.75;1.00;;;9.60;99.90;;;;;;6247332;23;20478;-87
2023/01/17 12:03:29;;;;;;;1.38;1.10;;;9.10;99.90;;;;;;6248202;23;20063;-88
2023/01/17 12:06:34;;;;;;;2.47;1.40;;;8.70;99.90;;;;;;6246546;23;20401;-86
2023/01/17 12:09:46;;;;;;;3.50;1.42;;;8.40;99.90;;;;;;6245964;23;20035;-86
2023/01/17 12:16:38;;;;;;;1.85;1.30;;;7.90;99.90;;;;;;6246498;23;20020;-86
2023/01/17 12:20:03;;;;;;;3.33;1.20;;;7.70;99.90;;;;;;6225996;23;20028;-87
2023/01/17 12:23:34;;;;;;;1.48;1.33;;;7.90;99.90;;;;;;6249556;23;20032;-86
2023/01/17 12:26:49;;;;;;;7.13;1.40;;;7.80;99.90;;;;;;6254583;23;20028;-86
2023/01/17 12:29:57;;;;;;;1.88;1.50;;;7.40;99.90;;;;;;6251758;23;20127;-88
2023/01/17 12:33:26;;;;;;;1.50;1.40;;;7.10;99.90;;;;;;6251604;23;20028;-88
2023/01/17 12:36:21;;;;;;;1.75;1.45;;;6.40;99.90;;;;;;6226331;23;20020;-88
2023/01/17 12:39:12;;;;;;;5.15;2.00;;;5.80;99.90;;;;;;6227525;23;20028;-89
2023/01/17 12:42:18;;;;;;;3.20;1.73;;;5.50;99.90;;;;;;6250163;23;20019;-87
2023/01/17 12:45:06;;;;;;;5.80;2.33;;;5.10;99.90;;;;;;6227460;23;20028;-87
2023/01/17 12:48:00;;;;;;;3.50;2.00;;;4.80;99.90;;;;;;6226321;23;20031;-88
2023/01/17 12:51:23;;;;;;;3.30;1.92;;;4.60;99.90;;;;;;6227736;23;20024;-86
2023/01/17 12:54:43;;;;;;;6.37;1.90;;;4.40;99.90;;;;;;6249348;23;20020;-86
2023/01/17 12:57:38;;;;;;;1.45;1.35;;;4.30;99.90;;;;;;6249238;23;20685;-87
2023/01/17 13:00:31;;;;;;;1.60;1.50;;;3.90;99.90;;;;;;6227241;23;20031;-86
2023/01/17 13:03:34;;;;;;;2.55;1.55;;;3.70;99.90;;;;;;6249800;23;20035;-87
2023/01/17 13:06:50;;;;;;;3.05;1.38;;;3.70;99.90;;;;;;6249184;23;20028;-88
2023/01/17 13:09:47;;;;;;;2.53;1.50;;;3.50;99.90;;;;;;6248430;23;20038;-87
2023/01/17 13:12:37;;;;;;;1.70;1.40;;;3.50;99.90;;;;;;6247927;23;20454;-86
2023/01/17 13:15:34;;;;;;;2.20;1.50;;;3.30;99.90;;;;;;6248299;23;20365;-86
2023/01/17 13:18:28;;;;;;;2.60;1.27;;;3.40;99.90;;;;;;6226605;23;20024;-87
2023/01/17 13:21:19;;;;;;;2.95;1.67;;;3.30;99.90;;;;;;6252433;23;20077;-89
2023/01/17 13:24:07;;;;;;;2.97;1.80;;;3.20;99.90;;;;;;6227475;23;20035;-87
2023/01/17 13:26:54;;;;;;;1.80;1.67;;;3.10;99.90;;;;;;6246760;23;20031;-87
2023/01/17 13:29:44;;;;;;;3.35;1.83;;;3.20;99.90;;;;;;6249389;23;20024;-89
2023/01/17 13:32:47;;;;;;;3.05;1.63;;;3.20;99.90;;;;;;6248335;23;20131;-85
2023/01/17 13:35:53;;;;;;;7.97;2.13;;;3.30;99.90;;;;;;6249285;23;20051;-85
2023/01/17 13:38:54;;;;;;;3.35;2.00;;;3.30;99.90;;;;;;6249343;23;20024;-89
2023/01/17 13:41:45;;;;;;;3.38;1.88;;;3.40;99.90;;;;;;6248383;23;20031;-86
2023/01/17 13:44:32;;;;;;;1.88;1.65;;;3.30;99.90;;;;;;6250083;23;20614;-89
2023/01/17 13:47:20;;;;;;;4.93;2.20;;;3.30;99.90;;;;;;6229672;23;20028;-85
2023/01/17 13:50:37;;;;;;;3.53;1.80;;;3.30;99.90;;;;;;6249012;23;20028;-86
2023/01/17 13:53:27;;;;;;;2.72;2.00;;;3.20;99.90;;;;;;6251116;23;20043;-87
2023/01/17 13:56:25;;;;;;;2.50;1.90;;;3.20;99.90;;;;;;6249623;23;20134;-87
2023/01/17 13:59:29;;;;;;;3.13;2.00;;;3.10;99.90;;;;;;6254245;23;20027;-87
2023/01/17 14:02:31;;;;;;;7.40;2.33;;;3.00;99.90;;;;;;6249885;23;20043;-86
2023/01/17 14:05:20;;;;;;;;;;;3.00;99.90;;;;;;6248569;23;20427;-88
2023/01/17 14:08:16;;;;;;;5.68;2.10;;;2.80;99.90;;;;;;6251679;23;19916;-86
2023/01/17 14:11:10;;;;;;;12.73;2.40;;;2.80;99.90;;;;;;6227865;23;20035;-87
2023/01/17 14:14:19;;;;;;;8.85;3.17;;;2.80;99.90;;;;;;6228974;23;20032;-87
2023/01/17 14:17:19;;;;;;;3.90;2.17;;;2.70;99.90;;;;;;6249727;23;20095;-87
2023/01/17 14:20:06;;;;;;;4.43;1.83;;;2.60;99.90;;;;;;6251407;23;20035;-89
2023/01/17 14:23:00;;;;;;;2.78;2.00;;;2.60;99.90;;;;;;6248411;23;20024;-88
2023/01/17 14:25:49;;;;;;;3.25;2.30;;;2.50;99.90;;;;;;6251721;23;20088;-88
2023/01/17 14:28:40;;;;;;;1.55;1.45;;;2.40;99.90;;;;;;6249818;23;20024;-88
2023/01/17 14:31:29;;;;;;;2.42;1.70;;;2.40;99.90;;;;;;6249259;23;20039;-87
2023/01/17 14:34:21;;;;;;;3.65;1.85;;;2.30;99.90;;;;;;6250276;23;20287;-87
2023/01/17 14:37:34;;;;;;;2.10;1.90;;;2.30;99.90;;;;;;6250361;23;20024;-87
2023/01/17 14:40:30;;;;;;;3.47;2.00;;;2.30;99.90;;;;;;6252364;23;20100;-86
2023/01/17 14:43:21;;;;;;;3.10;2.28;;;2.20;99.90;;;;;;6228931;23;20388;-87
2023/01/17 14:46:36;;;;;;;12.05;1.92;;;2.20;99.90;;;;;;6248678;23;20028;-87
2023/01/17 14:49:25;;;;;;;5.80;2.17;;;2.10;99.90;;;;;;6257079;23;20024;-89
2023/01/17 14:52:22;;;;;;;7.55;2.70;;;2.10;99.90;;;;;;6262694;23;20088;-85
2023/01/17 14:55:22;;;;;;;2.65;1.77;;;2.10;99.90;;;;;;6262866;23;20084;-87
2023/01/17 14:58:21;;;;;;;2.20;1.80;;;2.00;99.90;;;;;;6262144;23;20028;-86
2023/01/17 15:01:13;;;;;;;3.78;2.10;;;2.00;99.90;;;;;;6262947;22;20042;-83
2023/01/17 15:04:05;;;;;;;2.95;2.17;;;2.00;99.90;;;;;;6271430;22;20026;-83
2023/01/17 15:07:00;;;;;;;5.20;2.08;;;2.00;99.90;;;;;;6269909;23;20101;-86
2023/01/17 15:09:49;;;;;;;4.72;2.08;;;2.00;99.90;;;;;;6239458;23;20062;-87
2023/01/17 15:12:39;;;;;;;3.33;2.78;;;2.00;99.90;;;;;;6262523;23;20077;-88
2023/01/17 15:15:42;;;;;;;4.68;2.80;;;1.90;99.90;;;;;;6261693;23;20043;-87
2023/01/17 15:18:36;;;;;;;12.80;5.90;;;1.90;99.90;;;;;;6259321;23;20024;-87
2023/01/17 15:21:41;;;;;;;3.78;2.40;;;1.80;99.90;;;;;;6251022;23;20020;-86
2023/01/17 15:24:41;;;;;;;4.43;2.38;;;1.80;99.90;;;;;;6248487;23;20165;-86
2023/01/17 15:27:30;;;;;;;7.78;2.70;;;1.80;99.90;;;;;;6249650;23;20028;-85
2023/01/17 15:30:30;;;;;;;6.50;2.50;;;1.70;99.90;;;;;;6251034;23;20451;-86
2023/01/17 15:33:19;;;;;;;5.00;2.50;;;1.70;99.90;;;;;;6229764;23;20627;-85
2023/01/17 15:36:33;;;;;;;4.30;2.65;;;1.70;99.90;;;;;;6240132;23;20050;-85
2023/01/17 15:39:30;;;;;;;4.35;2.92;;;1.70;99.90;;;;;;6270816;23;20031;-84
2023/01/17 15:42:30;;;;;;;4.22;2.40;;;1.60;99.90;;;;;;6248386;23;20062;-87
2023/01/17 15:45:21;;;;;;;3.92;2.50;;;1.70;99.90;;;;;;6260488;23;20045;-86
2023/01/17 15:48:47;;;;;;;7.00;3.33;;;1.60;99.90;;;;;;6268041;23;20031;-87
2023/01/17 15:51:41;;;;;;;6.40;3.72;;;1.60;99.90;;;;;;6264459;23;20032;-86
2023/01/17 15:54:46;;;;;;;7.32;3.30;;;1.60;99.90;;;;;;6261212;23;20040;-86
2023/01/17 15:57:35;;;;;;;8.73;4.00;;;1.60;99.90;;;;;;6255074;23;20035;-86
2023/01/17 16:00:37;;;;;;;10.20;4.35;;;1.60;99.90;;;;;;6253445;23;20044;-86
2023/01/17 16:03:33;;;;;;;10.00;4.05;;;1.60;99.90;;;;;;6252602;23;20024;-86
2023/01/17 16:06:44;;;;;;;7.78;3.60;;;1.60;99.90;;;;;;6228723;23;20024;-85
2023/01/17 16:10:22;;;;;;;10.10;3.67;;;1.50;99.90;;;;;;6231880;23;20386;-86
2023/01/17 16:13:14;;;;;;;8.80;3.80;;;1.50;99.90;;;;;;6250188;23;20035;-86
2023/01/17 16:16:15;;;;;;;8.52;3.63;;;1.50;99.90;;;;;;6227232;23;20249;-87
2023/01/17 16:19:09;;;;;;;6.00;3.70;;;1.50;99.90;;;;;;6248460;23;20725;-87
2023/01/17 16:22:02;;;;;;;10.93;4.57;;;1.50;99.90;;;;;;6249473;22;20048;-86
2023/01/17 16:24:50;;;;;;;13.98;3.55;;;1.50;99.90;;;;;;6226282;23;20024;-85
2023/01/17 16:27:42;;;;;;;12.73;3.85;;;1.50;99.90;;;;;;6251011;23;20054;-86
2023/01/17 16:30:32;;;;;;;9.90;3.60;;;1.50;99.90;;;;;;6246142;23;20074;-87
2023/01/17 16:33:22;;;;;;;6.78;3.58;;;1.50;99.90;;;;;;6248048;23;20024;-86
2023/01/17 16:36:15;;;;;;;10.95;3.95;;;1.50;99.90;;;;;;6244441;23;20086;-87
2023/01/17 16:39:05;;;;;;;11.45;3.75;;;1.50;99.90;;;;;;6226001;23;20032;-87
2023/01/17 16:42:07;;;;;;;9.20;4.47;;;1.50;99.90;;;;;;6227017;23;20024;-86
2023/01/17 16:44:54;;;;;;;9.45;3.55;;;1.40;99.90;;;;;;6251953;23;20026;-88